createdAt,value
2019-04-04T00:03:44.468Z,24
2019-04-04T00:08:50.113Z,21.1
2019-04-04T00:13:55.564Z,18.8
2019-04-04T00:19:00.644Z,22.6
2019-04-04T00:24:07.052Z,25
2019-04-04T00:29:16.794Z,16.5
2019-04-04T00:34:22.636Z,18.6
2019-04-04T00:39:31.652Z,14.7
2019-04-04T00:44:35.782Z,18.5
2019-04-04T00:49:40.972Z,17.3
2019-04-04T00:54:46.191Z,17.9
2019-04-04T00:59:53.286Z,16
2019-04-04T01:05:01.233Z,23.2
2019-04-04T01:10:07.113Z,17.8
2019-04-04T01:15:12.302Z,21
2019-04-04T01:20:18.068Z,17.3
2019-04-04T01:25:25.692Z,22.5
2019-04-04T01:30:34.624Z,23.9
2019-04-04T01:35:39.931Z,19.4
2019-04-04T01:40:44.956Z,17
2019-04-04T01:45:50.274Z,19.9
2019-04-04T01:50:54.341Z,27.2
2019-04-04T01:55:59.772Z,19.2
2019-04-04T02:01:04.976Z,17.9
2019-04-04T02:06:08.943Z,18.5
2019-04-04T02:11:13.960Z,22.3
2019-04-04T02:16:19.162Z,24.2
2019-04-04T02:21:24.173Z,21
2019-04-04T02:26:34.071Z,24.7
2019-04-04T02:31:41.409Z,24.1
2019-04-04T02:36:49.165Z,20.4
2019-04-04T02:41:55.352Z,17.6
2019-04-04T02:47:00.723Z,19.7
2019-04-04T02:52:05.729Z,18.5
2019-04-04T02:57:10.917Z,17.6
2019-04-04T03:07:21.799Z,19.1
2019-04-04T03:12:26.760Z,17.5
2019-04-04T03:17:32.785Z,20
2019-04-04T03:22:38.085Z,18.6
2019-04-04T03:27:43.292Z,18.2
2019-04-04T03:32:53.703Z,21.1
2019-04-04T03:37:51.020Z,18.7
2019-04-04T03:42:56.208Z,18.9
2019-04-04T03:48:01.432Z,23.2
2019-04-04T03:53:05.096Z,23
2019-04-04T03:58:10.601Z,19.3
2019-04-04T04:03:14.461Z,20.7
2019-04-04T04:08:21.926Z,20.4
2019-04-04T04:13:27.608Z,22.3
2019-04-04T04:18:32.791Z,18.4
2019-04-04T04:23:36.460Z,20.2
2019-04-04T04:28:41.855Z,24.4
2019-04-04T04:33:45.664Z,22.4
2019-04-04T04:38:49.408Z,31.8
2019-04-04T04:43:54.549Z,23.6
2019-04-04T04:49:00.555Z,22
2019-04-04T04:54:08.939Z,28.2
2019-04-04T04:59:14.027Z,21.8
2019-04-04T05:04:19.497Z,23.4
2019-04-04T05:09:24.483Z,23.3
2019-04-04T05:14:29.754Z,23.1
2019-04-04T05:19:35.305Z,19.6
2019-04-04T05:24:40.476Z,23.2
2019-04-04T05:29:45.782Z,27.4
2019-04-04T05:34:50.926Z,24.5
2019-04-04T05:39:56.016Z,21.6
2019-04-04T05:45:00.967Z,23.5
2019-04-04T05:50:06.121Z,27.4
2019-04-04T05:55:13.546Z,20.8
2019-04-04T06:00:18.663Z,23.9
2019-04-04T06:05:26.853Z,28.3
2019-04-04T06:10:26.181Z,25.4
2019-04-04T06:15:32.160Z,26.1
2019-04-04T06:20:38.230Z,24.8
2019-04-04T06:25:43.280Z,30
2019-04-04T06:30:48.792Z,36.4
2019-04-04T06:35:58.235Z,26.1
2019-04-04T06:41:04.598Z,25.4
2019-04-04T06:46:09.987Z,32.5
2019-04-04T06:51:14.208Z,27
2019-04-04T06:56:18.541Z,32.6
2019-04-04T07:01:25.305Z,29
2019-04-04T07:06:30.764Z,33.4
2019-04-04T07:11:36.318Z,36.7
2019-04-04T07:16:41.344Z,31.1
2019-04-04T07:21:46.667Z,35
2019-04-04T07:26:55.044Z,33.7
2019-04-04T07:32:00.158Z,43.3
2019-04-04T07:37:05.212Z,42.2
2019-04-04T07:42:10.461Z,31.3
2019-04-04T07:47:18.621Z,33.7
2019-04-04T07:52:23.993Z,23.4
2019-04-04T07:57:30.173Z,22.5
2019-04-04T08:02:35.520Z,27.2
2019-04-04T08:07:40.645Z,26
2019-04-04T08:12:46.109Z,28.4
2019-04-04T08:17:51.446Z,25.3
2019-04-04T08:22:56.748Z,20
2019-04-04T08:28:01.695Z,17.7
2019-04-04T08:33:07.035Z,23.2
2019-04-04T08:38:12.674Z,20.7
2019-04-04T08:43:17.964Z,26.2
2019-04-04T08:48:22.856Z,29.4
2019-04-04T08:53:39.132Z,22.2
2019-04-04T08:58:35.437Z,23.6
2019-04-04T09:03:41.088Z,27.1
2019-04-04T09:08:46.032Z,31.1
2019-04-04T09:13:51.276Z,29
2019-04-04T09:18:56.801Z,24.1
2019-04-04T09:24:02.251Z,24.7
2019-04-04T09:29:07.336Z,30.3
2019-04-04T09:34:12.568Z,24.1
2019-04-04T09:39:17.761Z,27.2
2019-04-04T09:44:22.854Z,24
2019-04-04T09:49:27.916Z,26.8
2019-04-04T09:54:32.879Z,26.1
2019-04-04T09:59:38.374Z,26.8
2019-04-04T10:04:43.656Z,27.3
2019-04-04T10:09:49.088Z,29.2
2019-04-04T10:14:54.393Z,21.1
2019-04-04T10:19:59.722Z,23.9
2019-04-04T10:25:05.134Z,29.4
2019-04-04T10:30:10.444Z,23.6
2019-04-04T10:35:15.610Z,22.5
2019-04-04T10:40:20.701Z,24.7
2019-04-04T10:45:25.872Z,28.1
2019-04-04T10:50:30.950Z,21.2
2019-04-04T10:55:36.342Z,26.4
2019-04-04T11:00:40.301Z,22.1
2019-04-04T11:05:45.460Z,24.1
2019-04-04T11:10:50.489Z,30.8
2019-04-04T11:15:55.970Z,24.1
2019-04-04T11:21:00.907Z,19.3
2019-04-04T11:26:06.655Z,22.1
2019-04-04T11:31:12.059Z,19
2019-04-04T11:36:17.412Z,26
2019-04-04T11:41:23.914Z,26.4
2019-04-04T11:46:27.790Z,19.9
2019-04-04T11:51:32.856Z,22.3
2019-04-04T11:56:38.129Z,20.1
2019-04-04T12:01:43.124Z,23
2019-04-04T12:06:48.208Z,21.2
2019-04-04T12:11:53.334Z,28.8
2019-04-04T12:16:58.691Z,30.1
2019-04-04T12:22:06.777Z,23.3
2019-04-04T12:27:14.868Z,21.6
2019-04-04T12:32:20.006Z,20.9
2019-04-04T12:37:25.686Z,21
2019-04-04T12:42:30.850Z,18.5
2019-04-04T12:47:36.409Z,26
2019-04-04T12:52:41.610Z,25.1
2019-04-04T12:57:48.318Z,23.3
2019-04-04T13:02:53.277Z,25.7
2019-04-04T13:07:57.737Z,24.9
2019-04-04T13:13:02.570Z,21.2
2019-04-04T13:18:07.603Z,18.2
2019-04-04T13:23:12.845Z,27.1
2019-04-04T13:28:18.237Z,19
2019-04-04T13:33:23.522Z,19.7
2019-04-04T13:38:29.005Z,15.9
2019-04-04T13:43:33.946Z,15.4
2019-04-04T13:48:43.494Z,18.6
2019-04-04T13:53:49.827Z,31.8
2019-04-04T13:58:54.912Z,27.2
2019-04-04T14:03:58.135Z,21.9
2019-04-04T14:09:03.220Z,26
2019-04-04T14:14:08.263Z,20.1
2019-04-04T14:19:14.787Z,20.8
2019-04-04T14:24:18.295Z,19.9
2019-04-04T14:29:27.520Z,21.2
2019-04-04T14:34:31.820Z,22.8
2019-04-04T14:39:37.027Z,20.7
2019-04-04T14:44:40.713Z,15.8
2019-04-04T14:49:46.072Z,15.9
2019-04-04T14:54:51.095Z,17.1
2019-04-04T14:59:56.329Z,17.7
2019-04-04T15:04:59.989Z,18.1
2019-04-04T15:10:05.356Z,21.1
2019-04-04T15:15:10.266Z,24.5
2019-04-04T15:20:16.112Z,24.9
2019-04-04T15:25:19.645Z,17.3
2019-04-04T15:30:24.801Z,19.5
2019-04-04T15:35:31.433Z,17
2019-04-04T15:40:36.432Z,19.4
2019-04-04T15:45:41.647Z,17
2019-04-04T15:50:46.652Z,17.7
2019-04-04T15:55:51.705Z,20.1
2019-04-04T16:00:57.483Z,16.8
2019-04-04T16:06:03.209Z,19.2
2019-04-04T16:11:08.449Z,18.8
2019-04-04T16:16:13.547Z,26.2
2019-04-04T16:21:18.895Z,18.5
2019-04-04T16:26:26.820Z,19.9
2019-04-04T16:31:30.584Z,18.9
2019-04-04T16:36:33.467Z,21.3
2019-04-04T16:41:43.325Z,16.9
2019-04-04T16:46:52.609Z,17.2
2019-04-04T16:51:51.967Z,20
2019-04-04T16:57:01.102Z,20.2
2019-04-04T17:02:04.954Z,20.3
2019-04-04T17:07:10.314Z,21.9
2019-04-04T17:12:16.285Z,15.4
2019-04-04T17:17:27.913Z,21.2
2019-04-04T17:22:29.568Z,18.5
2019-04-04T17:27:36.999Z,21
2019-04-04T17:32:36.560Z,23.3
2019-04-04T17:37:46.919Z,23
2019-04-04T17:42:47.510Z,25
2019-04-04T17:47:49.984Z,25.9
2019-04-04T17:52:54.272Z,18.7
2019-04-04T17:58:01.403Z,23.4
2019-04-04T18:03:01.571Z,21.3
2019-04-04T18:08:08.589Z,20.3
2019-04-04T18:13:15.124Z,22.6
2019-04-04T18:18:21.190Z,20.5
2019-04-04T18:23:29.911Z,21.9
2019-04-04T18:28:36.068Z,23.9
2019-04-04T18:33:46.017Z,23.4
2019-04-04T18:38:54.874Z,20
2019-04-04T18:44:03.614Z,19.9
2019-04-04T18:49:08.413Z,19.9
2019-04-04T18:54:16.583Z,18.6
2019-04-04T18:59:23.785Z,17.6
2019-04-04T19:04:26.047Z,20.5
2019-04-04T19:09:31.966Z,17
2019-04-04T19:14:38.249Z,21.7
2019-04-04T19:19:44.529Z,19.8
2019-04-04T19:24:52.711Z,18.9
2019-04-04T19:30:01.359Z,18.4
2019-04-04T19:35:07.480Z,21.1
2019-04-04T19:40:14.265Z,22
2019-04-04T19:45:17.382Z,20.5
2019-04-04T19:50:17.156Z,19
2019-04-04T19:55:25.281Z,20
2019-04-04T20:00:32.140Z,17.3
2019-04-04T20:05:37.341Z,24
2019-04-04T20:10:41.826Z,17.9
2019-04-04T20:15:47.500Z,21.7
2019-04-04T20:20:55.370Z,19.7
2019-04-04T20:26:10.109Z,21.7
2019-04-04T20:31:14.905Z,19.1
2019-04-04T20:36:22.140Z,19.4
2019-04-04T20:41:28.553Z,16.4
2019-04-04T20:46:37.236Z,16.9
2019-04-04T20:51:44.502Z,17.9
2019-04-04T20:56:51.904Z,21.2
2019-04-04T21:01:56.982Z,20.1
2019-04-04T21:07:01.954Z,18.9
2019-04-04T21:12:06.922Z,18.9
2019-04-04T21:17:14.918Z,21.3
2019-04-04T21:22:27.169Z,17.7
2019-04-04T21:27:23.435Z,17.9
2019-04-04T21:32:28.228Z,20.5
2019-04-04T21:37:33.259Z,22.8
2019-04-04T21:42:38.532Z,18.8
2019-04-04T21:47:43.477Z,16.8
2019-04-04T21:52:48.645Z,17.6
2019-04-04T21:57:53.688Z,14.6
2019-04-04T22:02:58.996Z,18.9
2019-04-04T22:08:04.303Z,21.6
2019-04-04T22:13:09.679Z,18.7
2019-04-04T22:18:15.174Z,17.4
2019-04-04T22:23:20.381Z,18.2
2019-04-04T22:28:26.008Z,17.7
2019-04-04T22:33:31.384Z,15.5
2019-04-04T22:38:37.267Z,15.5
2019-04-04T22:43:42.456Z,21
2019-04-04T22:48:47.621Z,17.2
2019-04-04T22:53:52.796Z,18.8
2019-04-04T22:58:58.089Z,17.7
2019-04-04T23:04:01.832Z,19.1
2019-04-04T23:09:07.000Z,16.1
2019-04-04T23:14:12.163Z,15.3
2019-04-04T23:19:16.039Z,17.7
2019-04-04T23:24:21.208Z,18.6
2019-04-04T23:29:26.262Z,17.9
2019-04-04T23:34:31.400Z,18.3
2019-04-04T23:39:37.066Z,17.5
2019-04-04T23:44:41.933Z,16.7
2019-04-04T23:49:47.035Z,22.9
2019-04-04T23:54:52.234Z,17
2019-04-04T23:59:57.455Z,20.1
